sensor_id;sensor_type;location;lat;lon;timestamp;pressure;altitude;pressure_sealevel;temperature;humidity
7754;BME280;3921;42.266;23.122;2023-06-22T00:00:16;95855.25;;;22.08;66.14
7754;BME280;3921;42.266;23.122;2023-06-22T00:02:43;95773.09;;;21.58;66.22
7754;BME280;3921;42.266;23.122;2023-06-22T00:05:12;96068.78;;;23.19;66.25
7754;BME280;3921;42.266;23.122;2023-06-22T00:07:39;95929.66;;;22.43;66.80
7754;BME280;3921;42.266;23.122;2023-06-22T00:10:06;95877.34;;;22.11;66.50
7754;BME280;3921;42.266;23.122;2023-06-22T00:12:33;95722.94;;;21.16;66.15
7754;BME280;3921;42.266;23.122;2023-06-22T00:15:00;95782.91;;;21.48;66.39
7754;BME280;3921;42.266;23.122;2023-06-22T00:17:27;95878.88;;;22.15;66.30
7754;BME280;3921;42.266;23.122;2023-06-22T00:19:56;95911.22;;;22.35;66.37
7754;BME280;3921;42.266;23.122;2023-06-22T00:22:28;96012.47;;;22.98;66.41
7754;BME280;3921;42.266;23.122;2023-06-22T00:24:55;95957.56;;;22.47;66.81
7754;BME280;3921;42.266;23.122;2023-06-22T00:27:22;95910.75;;;22.26;66.46
7754;BME280;3921;42.266;23.122;2023-06-22T00:29:49;95883.28;;;22.11;66.89
7754;BME280;3921;42.266;23.122;2023-06-22T00:32:17;96046.06;;;22.92;67.19
7754;BME280;3921;42.266;23.122;2023-06-22T00:34:44;96025.06;;;22.84;67.23
7754;BME280;3921;42.266;23.122;2023-06-22T00:37:13;96020.03;;;22.83;67.28
7754;BME280;3921;42.266;23.122;2023-06-22T00:39:41;95683.44;;;20.65;67.38
7754;BME280;3921;42.266;23.122;2023-06-22T00:42:13;95946.94;;;22.38;67.39
7754;BME280;3921;42.266;23.122;2023-06-22T00:44:40;95869.00;;;21.87;67.49
7754;BME280;3921;42.266;23.122;2023-06-22T00:47:07;95834.28;;;21.62;67.66
7754;BME280;3921;42.266;23.122;2023-06-22T00:49:34;95736.22;;;20.85;67.85
7754;BME280;3921;42.266;23.122;2023-06-22T00:52:01;95793.78;;;21.33;67.94
7754;BME280;3921;42.266;23.122;2023-06-22T00:54:29;95995.47;;;22.60;67.92
7754;BME280;3921;42.266;23.122;2023-06-22T00:57:02;95738.25;;;20.97;67.70
7754;BME280;3921;42.266;23.122;2023-06-22T00:59:29;95791.69;;;21.22;67.72
7754;BME280;3921;42.266;23.122;2023-06-22T01:01:56;95874.09;;;21.68;67.77
7754;BME280;3921;42.266;23.122;2023-06-22T01:04:35;96008.59;;;22.52;68.03
7754;BME280;3921;42.266;23.122;2023-06-22T01:07:10;95827.84;;;21.33;68.25
7754;BME280;3921;42.266;23.122;2023-06-22T01:09:49;95923.16;;;21.96;68.20
7754;BME280;3921;42.266;23.122;2023-06-22T01:12:20;95551.72;;;19.59;68.19
7754;BME280;3921;42.266;23.122;2023-06-22T01:14:52;95564.50;;;19.57;68.14
7754;BME280;3921;42.266;23.122;2023-06-22T01:17:21;95888.72;;;21.64;68.70
7754;BME280;3921;42.266;23.122;2023-06-22T01:19:50;96006.97;;;22.31;68.75
7754;BME280;3921;42.266;23.122;2023-06-22T01:22:23;95682.13;;;20.34;68.71
7754;BME280;3921;42.266;23.122;2023-06-22T01:24:57;95994.25;;;22.29;68.70
7754;BME280;3921;42.266;23.122;2023-06-22T01:27:40;95965.66;;;21.80;69.20
7754;BME280;3921;42.266;23.122;2023-06-22T01:30:28;95743.28;;;20.58;69.03
7754;BME280;3921;42.266;23.122;2023-06-22T01:33:00;95879.16;;;21.29;68.54
7754;BME280;3921;42.266;23.122;2023-06-22T01:35:29;95615.34;;;19.62;68.44
7754;BME280;3921;42.266;23.122;2023-06-22T01:37:57;95605.78;;;19.45;68.48
7754;BME280;3921;42.266;23.122;2023-06-22T01:40:27;95799.59;;;20.75;67.97
7754;BME280;3921;42.266;23.122;2023-06-22T01:42:54;95950.94;;;21.65;67.99
7754;BME280;3921;42.266;23.122;2023-06-22T01:45:21;95855.16;;;20.90;68.82
7754;BME280;3921;42.266;23.122;2023-06-22T01:47:50;95731.28;;;20.17;68.92
7754;BME280;3921;42.266;23.122;2023-06-22T01:50:17;95817.06;;;20.64;69.48
7754;BME280;3921;42.266;23.122;2023-06-22T01:52:46;95999.28;;;21.71;69.52
7754;BME280;3921;42.266;23.122;2023-06-22T01:55:13;95903.28;;;21.21;69.42
7754;BME280;3921;42.266;23.122;2023-06-22T01:57:39;95504.97;;;18.72;69.46
7754;BME280;3921;42.266;23.122;2023-06-22T02:00:10;95804.44;;;20.39;70.48
7754;BME280;3921;42.266;23.122;2023-06-22T02:02:46;95939.00;;;21.23;70.50
7754;BME280;3921;42.266;23.122;2023-06-22T02:05:27;95878.09;;;20.70;70.54
7754;BME280;3921;42.266;23.122;2023-06-22T02:08:00;95979.94;;;21.43;70.37
7754;BME280;3921;42.266;23.122;2023-06-22T02:10:29;95925.94;;;21.09;70.51
7754;BME280;3921;42.266;23.122;2023-06-22T02:12:59;96019.72;;;21.71;70.39
7754;BME280;3921;42.266;23.122;2023-06-22T02:15:27;95962.56;;;21.31;70.49
7754;BME280;3921;42.266;23.122;2023-06-22T02:17:59;95923.88;;;20.97;70.51
7754;BME280;3921;42.266;23.122;2023-06-22T02:20:28;95795.78;;;20.21;70.52
7754;BME280;3921;42.266;23.122;2023-06-22T02:22:55;95898.34;;;20.75;71.02
7754;BME280;3921;42.266;23.122;2023-06-22T02:25:21;95827.56;;;20.34;71.04
7754;BME280;3921;42.266;23.122;2023-06-22T02:27:50;96061.22;;;21.78;71.15
7754;BME280;3921;42.266;23.122;2023-06-22T02:30:19;95868.19;;;20.62;71.32
7754;BME280;3921;42.266;23.122;2023-06-22T02:32:46;95808.69;;;20.16;71.37
7754;BME280;3921;42.266;23.122;2023-06-22T02:35:15;95778.25;;;20.12;71.59
7754;BME280;3921;42.266;23.122;2023-06-22T02:37:45;96067.31;;;21.75;72.04
7754;BME280;3921;42.266;23.122;2023-06-22T02:40:17;95894.31;;;20.91;71.87
7754;BME280;3921;42.266;23.122;2023-06-22T02:42:44;95928.59;;;20.85;72.21
7754;BME280;3921;42.266;23.122;2023-06-22T02:45:11;95697.88;;;19.58;72.44
7754;BME280;3921;42.266;23.122;2023-06-22T02:47:37;95921.00;;;21.04;72.61
7754;BME280;3921;42.266;23.122;2023-06-22T02:50:05;96033.16;;;21.76;72.67
7754;BME280;3921;42.266;23.122;2023-06-22T02:52:32;95992.22;;;21.35;72.54
7754;BME280;3921;42.266;23.122;2023-06-22T02:55:00;95786.81;;;20.11;72.87
7754;BME280;3921;42.266;23.122;2023-06-22T02:57:27;95940.03;;;20.97;72.43
7754;BME280;3921;42.266;23.122;2023-06-22T02:59:54;95658.59;;;19.18;72.66
7754;BME280;3921;42.266;23.122;2023-06-22T03:02:21;95975.28;;;21.11;72.87
7754;BME280;3921;42.266;23.122;2023-06-22T03:04:48;95789.75;;;20.00;72.92
7754;BME280;3921;42.266;23.122;2023-06-22T03:07:15;95909.06;;;20.62;73.27
7754;BME280;3921;42.266;23.122;2023-06-22T03:09:43;96004.38;;;21.29;73.34
7754;BME280;3921;42.266;23.122;2023-06-22T03:12:11;95949.56;;;20.93;73.16
7754;BME280;3921;42.266;23.122;2023-06-22T03:14:38;95670.50;;;18.94;73.18
7754;BME280;3921;42.266;23.122;2023-06-22T03:17:05;95757.69;;;19.73;73.18
7754;BME280;3921;42.266;23.122;2023-06-22T03:19:32;95905.59;;;20.41;73.61
7754;BME280;3921;42.266;23.122;2023-06-22T03:21:59;95885.03;;;20.45;74.33
7754;BME280;3921;42.266;23.122;2023-06-22T03:24:26;95961.13;;;20.80;74.45
7754;BME280;3921;42.266;23.122;2023-06-22T03:26:55;96055.47;;;21.52;74.79
7754;BME280;3921;42.266;23.122;2023-06-22T03:29:26;95536.38;;;18.24;75.21
7754;BME280;3921;42.266;23.122;2023-06-22T03:31:54;95886.22;;;20.36;75.04
7754;BME280;3921;42.266;23.122;2023-06-22T03:34:21;95950.31;;;20.74;75.20
7754;BME280;3921;42.266;23.122;2023-06-22T03:36:48;95955.25;;;20.78;75.50
7754;BME280;3921;42.266;23.122;2023-06-22T03:39:15;95957.38;;;20.67;76.16
7754;BME280;3921;42.266;23.122;2023-06-22T03:41:42;95689.69;;;19.03;75.87
7754;BME280;3921;42.266;23.122;2023-06-22T03:44:08;95757.09;;;19.41;75.83
7754;BME280;3921;42.266;23.122;2023-06-22T03:46:39;96081.03;;;21.52;76.29
7754;BME280;3921;42.266;23.122;2023-06-22T03:49:06;95984.91;;;20.82;76.60
7754;BME280;3921;42.266;23.122;2023-06-22T03:51:33;95980.03;;;20.76;77.01
7754;BME280;3921;42.266;23.122;2023-06-22T03:54:00;95702.56;;;19.00;76.91
7754;BME280;3921;42.266;23.122;2023-06-22T03:56:27;95963.41;;;20.66;77.20
7754;BME280;3921;42.266;23.122;2023-06-22T03:58:53;96120.97;;;21.55;77.10
7754;BME280;3921;42.266;23.122;2023-06-22T04:01:20;96077.69;;;21.28;77.38
7754;BME280;3921;42.266;23.122;2023-06-22T04:03:49;96004.53;;;20.80;77.46
7754;BME280;3921;42.266;23.122;2023-06-22T04:06:15;96011.75;;;20.92;77.47
7754;BME280;3921;42.266;23.122;2023-06-22T04:08:42;96127.47;;;21.41;78.03
7754;BME280;3921;42.266;23.122;2023-06-22T04:11:09;96114.31;;;21.51;77.56
7754;BME280;3921;42.266;23.122;2023-06-22T04:13:36;96016.31;;;20.84;77.20
7754;BME280;3921;42.266;23.122;2023-06-22T04:16:04;95857.53;;;19.84;77.30
7754;BME280;3921;42.266;23.122;2023-06-22T04:18:40;96023.91;;;20.86;77.45
7754;BME280;3921;42.266;23.122;2023-06-22T04:21:09;96119.31;;;21.54;77.00
7754;BME280;3921;42.266;23.122;2023-06-22T04:23:36;96038.50;;;21.06;77.42
7754;BME280;3921;42.266;23.122;2023-06-22T04:26:03;96079.38;;;21.29;77.49
7754;BME280;3921;42.266;23.122;2023-06-22T04:28:30;96036.22;;;20.98;78.17
7754;BME280;3921;42.266;23.122;2023-06-22T04:31:00;96011.22;;;20.84;77.84
7754;BME280;3921;42.266;23.122;2023-06-22T04:33:27;95934.50;;;20.42;77.93
7754;BME280;3921;42.266;23.122;2023-06-22T04:35:55;96109.09;;;21.54;77.31
7754;BME280;3921;42.266;23.122;2023-06-22T04:38:24;96081.84;;;21.31;77.09
7754;BME280;3921;42.266;23.122;2023-06-22T04:40:51;96023.47;;;20.75;76.71
7754;BME280;3921;42.266;23.122;2023-06-22T04:43:18;96041.09;;;20.82;77.34
7754;BME280;3921;42.266;23.122;2023-06-22T04:45:45;96117.66;;;21.53;77.81
7754;BME280;3921;42.266;23.122;2023-06-22T04:48:17;96007.16;;;20.79;77.44
7754;BME280;3921;42.266;23.122;2023-06-22T04:50:44;96034.69;;;20.94;77.29
7754;BME280;3921;42.266;23.122;2023-06-22T04:53:11;96144.13;;;21.52;77.69
7754;BME280;3921;42.266;23.122;2023-06-22T04:55:40;95910.59;;;20.21;77.92
7754;BME280;3921;42.266;23.122;2023-06-22T04:58:11;96071.94;;;21.21;78.18
7754;BME280;3921;42.266;23.122;2023-06-22T05:00:38;95959.84;;;20.47;78.72
7754;BME280;3921;42.266;23.122;2023-06-22T05:03:05;95967.94;;;20.58;78.76
7754;BME280;3921;42.266;23.122;2023-06-22T05:05:36;96129.22;;;21.61;79.13
7754;BME280;3921;42.266;23.122;2023-06-22T05:08:03;95945.16;;;20.53;79.41
7754;BME280;3921;42.266;23.122;2023-06-22T05:10:32;96113.84;;;21.63;79.90
7754;BME280;3921;42.266;23.122;2023-06-22T05:13:00;95502.00;;;17.89;79.78
7754;BME280;3921;42.266;23.122;2023-06-22T05:15:27;96002.31;;;20.94;80.54
7754;BME280;3921;42.266;23.122;2023-06-22T05:17:56;95831.94;;;19.87;80.11
7754;BME280;3921;42.266;23.122;2023-06-22T05:20:23;96008.94;;;20.99;80.62
7754;BME280;3921;42.266;23.122;2023-06-22T05:22:50;96133.81;;;21.75;80.30
7754;BME280;3921;42.266;23.122;2023-06-22T05:25:17;95780.66;;;19.71;80.15
7754;BME280;3921;42.266;23.122;2023-06-22T05:27:44;95950.03;;;20.59;80.32
7754;BME280;3921;42.266;23.122;2023-06-22T05:30:13;95990.59;;;20.89;80.45
7754;BME280;3921;42.266;23.122;2023-06-22T05:32:41;96063.91;;;21.32;80.32
7754;BME280;3921;42.266;23.122;2023-06-22T05:35:09;96115.59;;;21.83;80.60
7754;BME280;3921;42.266;23.122;2023-06-22T05:37:36;95942.72;;;20.72;80.44
7754;BME280;3921;42.266;23.122;2023-06-22T05:40:04;95957.16;;;20.73;80.43
7754;BME280;3921;42.266;23.122;2023-06-22T05:42:32;96064.03;;;21.51;81.10
7754;BME280;3921;42.266;23.122;2023-06-22T05:44:59;96023.34;;;21.23;81.04
7754;BME280;3921;42.266;23.122;2023-06-22T05:47:27;96114.25;;;21.94;80.38
7754;BME280;3921;42.266;23.122;2023-06-22T05:49:54;95856.69;;;20.30;80.98
7754;BME280;3921;42.266;23.122;2023-06-22T05:52:21;96002.91;;;21.23;81.17
7754;BME280;3921;42.266;23.122;2023-06-22T05:54:48;96006.97;;;21.27;81.13
7754;BME280;3921;42.266;23.122;2023-06-22T05:57:15;96035.28;;;21.44;81.46
7754;BME280;3921;42.266;23.122;2023-06-22T05:59:42;96164.25;;;22.03;81.85
7754;BME280;3921;42.266;23.122;2023-06-22T06:02:09;96074.69;;;21.61;81.99
7754;BME280;3921;42.266;23.122;2023-06-22T06:04:37;96152.22;;;22.05;82.33
7754;BME280;3921;42.266;23.122;2023-06-22T06:07:04;96040.13;;;21.52;82.22
7754;BME280;3921;42.266;23.122;2023-06-22T06:09:31;95802.13;;;20.11;82.44
7754;BME280;3921;42.266;23.122;2023-06-22T06:11:58;95711.41;;;19.36;82.15
7754;BME280;3921;42.266;23.122;2023-06-22T06:14:24;96048.13;;;21.65;83.27
7754;BME280;3921;42.266;23.122;2023-06-22T06:16:51;96052.47;;;21.63;83.36
7754;BME280;3921;42.266;23.122;2023-06-22T06:19:18;95632.09;;;19.00;82.84
7754;BME280;3921;42.266;23.122;2023-06-22T06:21:46;95964.81;;;21.17;83.23
7754;BME280;3921;42.266;23.122;2023-06-22T06:24:13;95955.34;;;21.19;83.09
7754;BME280;3921;42.266;23.122;2023-06-22T06:26:40;96142.59;;;22.32;82.97
7754;BME280;3921;42.266;23.122;2023-06-22T06:29:07;96127.63;;;22.23;83.10
7754;BME280;3921;42.266;23.122;2023-06-22T06:31:34;95954.16;;;21.28;83.33
7754;BME280;3921;42.266;23.122;2023-06-22T06:34:01;95892.91;;;20.84;83.22
7754;BME280;3921;42.266;23.122;2023-06-22T06:36:31;96030.16;;;21.87;83.67
7754;BME280;3921;42.266;23.122;2023-06-22T06:38:59;96128.38;;;22.45;83.77
7754;BME280;3921;42.266;23.122;2023-06-22T06:41:26;96059.19;;;22.06;83.75
7754;BME280;3921;42.266;23.122;2023-06-22T06:43:53;96119.59;;;22.51;83.74
7754;BME280;3921;42.266;23.122;2023-06-22T06:46:20;95763.28;;;20.48;83.96
7754;BME280;3921;42.266;23.122;2023-06-22T06:48:47;95961.81;;;21.70;83.90
7754;BME280;3921;42.266;23.122;2023-06-22T06:51:14;96060.63;;;22.34;83.49
7754;BME280;3921;42.266;23.122;2023-06-22T06:53:41;96106.47;;;22.59;82.66
7754;BME280;3921;42.266;23.122;2023-06-22T06:56:09;95843.44;;;21.07;81.50
7754;BME280;3921;42.266;23.122;2023-06-22T06:58:38;95626.88;;;19.71;80.70
7754;BME280;3921;42.266;23.122;2023-06-22T07:01:05;95850.13;;;21.09;80.57
7754;BME280;3921;42.266;23.122;2023-06-22T07:03:32;95923.06;;;21.59;80.37
7754;BME280;3921;42.266;23.122;2023-06-22T07:05:59;95985.44;;;21.95;80.17
7754;BME280;3921;42.266;23.122;2023-06-22T07:08:26;96110.19;;;22.72;80.36
7754;BME280;3921;42.266;23.122;2023-06-22T07:10:53;96107.47;;;22.75;80.49
7754;BME280;3921;42.266;23.122;2023-06-22T07:13:23;95926.00;;;21.70;80.23
7754;BME280;3921;42.266;23.122;2023-06-22T07:15:50;96004.13;;;22.18;80.37
7754;BME280;3921;42.266;23.122;2023-06-22T07:18:17;95690.91;;;20.27;79.58
7754;BME280;3921;42.266;23.122;2023-06-22T07:20:44;96003.53;;;22.32;79.71
7754;BME280;3921;42.266;23.122;2023-06-22T07:23:10;95990.41;;;22.19;79.24
7754;BME280;3921;42.266;23.122;2023-06-22T07:25:37;96040.69;;;22.59;78.87
7754;BME280;3921;42.266;23.122;2023-06-22T07:28:06;95910.69;;;21.89;78.61
7754;BME280;3921;42.266;23.122;2023-06-22T07:30:35;95953.31;;;22.09;78.82
7754;BME280;3921;42.266;23.122;2023-06-22T07:33:02;96100.94;;;23.07;79.35
7754;BME280;3921;42.266;23.122;2023-06-22T07:35:32;95934.19;;;22.17;79.49
7754;BME280;3921;42.266;23.122;2023-06-22T07:37:59;95740.41;;;20.86;79.38
7754;BME280;3921;42.266;23.122;2023-06-22T07:40:26;95973.66;;;22.51;79.54
7754;BME280;3921;42.266;23.122;2023-06-22T07:42:53;95979.84;;;22.64;79.63
7754;BME280;3921;42.266;23.122;2023-06-22T07:45:20;95580.91;;;20.14;79.71
7754;BME280;3921;42.266;23.122;2023-06-22T07:47:49;96075.78;;;23.34;80.37
7754;BME280;3921;42.266;23.122;2023-06-22T07:50:16;95978.97;;;22.65;80.50
7754;BME280;3921;42.266;23.122;2023-06-22T07:52:43;95969.41;;;22.69;80.84
7754;BME280;3921;42.266;23.122;2023-06-22T07:55:10;95984.75;;;22.89;81.25
7754;BME280;3921;42.266;23.122;2023-06-22T07:57:43;95995.09;;;22.86;81.11
7754;BME280;3921;42.266;23.122;2023-06-22T08:00:10;95983.84;;;22.90;81.16
7754;BME280;3921;42.266;23.122;2023-06-22T08:02:40;96043.56;;;23.28;81.12
7754;BME280;3921;42.266;23.122;2023-06-22T08:05:09;95797.63;;;21.62;81.15
7754;BME280;3921;42.266;23.122;2023-06-22T08:07:37;95713.22;;;21.05;81.35
7754;BME280;3921;42.266;23.122;2023-06-22T08:10:05;95769.78;;;21.56;81.79
7754;BME280;3921;42.266;23.122;2023-06-22T08:12:32;95933.56;;;22.50;82.34
7754;BME280;3921;42.266;23.122;2023-06-22T08:14:59;96043.31;;;23.33;82.43
7754;BME280;3921;42.266;23.122;2023-06-22T08:17:26;96010.72;;;23.18;82.42
7754;BME280;3921;42.266;23.122;2023-06-22T08:19:53;95972.75;;;22.90;82.20
7754;BME280;3921;42.266;23.122;2023-06-22T08:22:21;95987.34;;;23.07;82.59
7754;BME280;3921;42.266;23.122;2023-06-22T08:24:48;95983.78;;;23.09;82.34
7754;BME280;3921;42.266;23.122;2023-06-22T08:27:15;95658.72;;;21.05;82.27
7754;BME280;3921;42.266;23.122;2023-06-22T08:29:44;95898.81;;;22.63;82.90
7754;BME280;3921;42.266;23.122;2023-06-22T08:32:12;95722.97;;;21.72;81.32
7754;BME280;3921;42.266;23.122;2023-06-22T08:34:39;95571.97;;;20.64;80.65
7754;BME280;3921;42.266;23.122;2023-06-22T08:37:07;95930.75;;;23.11;79.72
7754;BME280;3921;42.266;23.122;2023-06-22T08:39:36;96023.44;;;23.55;79.11
7754;BME280;3921;42.266;23.122;2023-06-22T08:42:04;95539.13;;;20.75;76.39
7754;BME280;3921;42.266;23.122;2023-06-22T08:44:31;96063.78;;;24.05;75.09
7754;BME280;3921;42.266;23.122;2023-06-22T08:46:58;95587.53;;;21.35;73.56
7754;BME280;3921;42.266;23.122;2023-06-22T08:49:25;95938.50;;;23.44;73.28
7754;BME280;3921;42.266;23.122;2023-06-22T08:51:52;96037.16;;;24.24;74.43
7754;BME280;3921;42.266;23.122;2023-06-22T08:54:21;95928.47;;;23.57;75.48
7754;BME280;3921;42.266;23.122;2023-06-22T08:56:49;95881.03;;;23.31;76.58
7754;BME280;3921;42.266;23.122;2023-06-22T08:59:23;95713.66;;;22.26;78.03
7754;BME280;3921;42.266;23.122;2023-06-22T09:01:50;95930.88;;;23.60;78.23
7754;BME280;3921;42.266;23.122;2023-06-22T09:04:17;95921.44;;;23.61;78.53
7754;BME280;3921;42.266;23.122;2023-06-22T09:06:47;95913.81;;;23.59;79.15
7754;BME280;3921;42.266;23.122;2023-06-22T09:09:15;95694.84;;;22.27;79.68
7754;BME280;3921;42.266;23.122;2023-06-22T09:11:43;96020.47;;;24.32;80.49
7754;BME280;3921;42.266;23.122;2023-06-22T09:14:11;95929.97;;;23.61;80.44
7754;BME280;3921;42.266;23.122;2023-06-22T09:16:38;96038.22;;;24.37;76.29
7754;BME280;3921;42.266;23.122;2023-06-22T09:19:05;95912.22;;;23.74;74.50
7754;BME280;3921;42.266;23.122;2023-06-22T09:21:32;95950.47;;;23.96;72.60
7754;BME280;3921;42.266;23.122;2023-06-22T09:23:59;95854.16;;;23.55;73.13
7754;BME280;3921;42.266;23.122;2023-06-22T09:26:26;96046.31;;;24.62;73.76
7754;BME280;3921;42.266;23.122;2023-06-22T09:28:53;95981.97;;;24.48;72.11
7754;BME280;3921;42.266;23.122;2023-06-22T09:31:21;95972.22;;;24.39;68.13
7754;BME280;3921;42.266;23.122;2023-06-22T09:33:51;95788.94;;;23.44;68.39
7754;BME280;3921;42.266;23.122;2023-06-22T09:36:18;95965.41;;;24.70;66.03
7754;BME280;3921;42.266;23.122;2023-06-22T09:38:45;95791.16;;;23.67;67.38
7754;BME280;3921;42.266;23.122;2023-06-22T09:41:12;95856.00;;;24.18;65.01
7754;BME280;3921;42.266;23.122;2023-06-22T09:43:39;95688.97;;;23.26;66.53
7754;BME280;3921;42.266;23.122;2023-06-22T09:46:06;95494.69;;;22.04;64.88
7754;BME280;3921;42.266;23.122;2023-06-22T09:48:36;95358.03;;;21.41;67.36
7754;BME280;3921;42.266;23.122;2023-06-22T09:51:03;96001.09;;;25.53;67.63
7754;BME280;3921;42.266;23.122;2023-06-22T09:53:30;95923.19;;;25.05;66.16
7754;BME280;3921;42.266;23.122;2023-06-22T09:55:57;95673.16;;;23.67;65.96
7754;BME280;3921;42.266;23.122;2023-06-22T09:58:23;95690.19;;;23.84;62.64
7754;BME280;3921;42.266;23.122;2023-06-22T10:00:50;95886.81;;;25.27;65.22
7754;BME280;3921;42.266;23.122;2023-06-22T10:03:18;95655.25;;;23.97;66.28
7754;BME280;3921;42.266;23.122;2023-06-22T10:05:46;95495.53;;;23.02;62.44
7754;BME280;3921;42.266;23.122;2023-06-22T10:08:13;95509.31;;;23.15;59.78
7754;BME280;3921;42.266;23.122;2023-06-22T10:10:40;96054.34;;;26.41;65.43
7754;BME280;3921;42.266;23.122;2023-06-22T10:13:10;95871.50;;;25.68;63.27
7754;BME280;3921;42.266;23.122;2023-06-22T10:15:38;95952.28;;;26.25;65.10
7754;BME280;3921;42.266;23.122;2023-06-22T10:18:05;95881.50;;;25.89;64.27
7754;BME280;3921;42.266;23.122;2023-06-22T10:20:32;95481.22;;;23.44;63.31
7754;BME280;3921;42.266;23.122;2023-06-22T10:23:15;95729.09;;;25.27;66.03
7754;BME280;3921;42.266;23.122;2023-06-22T10:25:45;95870.25;;;26.18;66.79
7754;BME280;3921;42.266;23.122;2023-06-22T10:28:12;95851.66;;;26.13;65.92
7754;BME280;3921;42.266;23.122;2023-06-22T10:30:39;95945.06;;;26.72;68.46
7754;BME280;3921;42.266;23.122;2023-06-22T10:33:07;95500.63;;;24.22;70.02
7754;BME280;3921;42.266;23.122;2023-06-22T10:35:34;95412.66;;;23.62;69.69
7754;BME280;3921;42.266;23.122;2023-06-22T10:38:03;95847.66;;;26.36;70.27
7754;BME280;3921;42.266;23.122;2023-06-22T10:40:32;95688.84;;;25.54;67.75
7754;BME280;3921;42.266;23.122;2023-06-22T10:43:00;95429.84;;;23.90;64.50
7754;BME280;3921;42.266;23.122;2023-06-22T10:45:27;95390.69;;;23.57;65.20
7754;BME280;3921;42.266;23.122;2023-06-22T10:47:54;95378.97;;;23.68;60.50
7754;BME280;3921;42.266;23.122;2023-06-22T10:50:22;95515.41;;;24.61;61.06
7754;BME280;3921;42.266;23.122;2023-06-22T10:52:50;95733.97;;;26.28;64.24
7754;BME280;3921;42.266;23.122;2023-06-22T10:55:17;95432.50;;;24.45;65.54
7754;BME280;3921;42.266;23.122;2023-06-22T10:57:45;95847.81;;;27.02;64.35
7754;BME280;3921;42.266;23.122;2023-06-22T11:00:13;95970.19;;;27.90;61.39
7754;BME280;3921;42.266;23.122;2023-06-22T11:02:41;95768.03;;;26.73;61.42
7754;BME280;3921;42.266;23.122;2023-06-22T11:05:08;95361.94;;;24.09;63.09
7754;BME280;3921;42.266;23.122;2023-06-22T11:07:36;95436.09;;;24.84;65.21
7754;BME280;3921;42.266;23.122;2023-06-22T11:10:04;95833.03;;;27.31;64.41
7754;BME280;3921;42.266;23.122;2023-06-22T11:12:31;95879.56;;;27.67;67.82
7754;BME280;3921;42.266;23.122;2023-06-22T11:14:59;95540.28;;;25.58;67.98
7754;BME280;3921;42.266;23.122;2023-06-22T11:17:27;95450.44;;;25.01;65.30
7754;BME280;3921;42.266;23.122;2023-06-22T11:19:55;95598.06;;;26.06;68.55
7754;BME280;3921;42.266;23.122;2023-06-22T11:22:22;95527.50;;;25.69;63.93
7754;BME280;3921;42.266;23.122;2023-06-22T11:24:49;95657.47;;;26.43;66.02
7754;BME280;3921;42.266;23.122;2023-06-22T11:27:16;95449.44;;;25.30;63.07
7754;BME280;3921;42.266;23.122;2023-06-22T11:29:43;95938.25;;;28.42;68.10
7754;BME280;3921;42.266;23.122;2023-06-22T11:32:13;95791.31;;;27.24;63.03
7754;BME280;3921;42.266;23.122;2023-06-22T11:34:40;95578.50;;;26.16;67.96
7754;BME280;3921;42.266;23.122;2023-06-22T11:37:07;95814.44;;;27.76;61.15
7754;BME280;3921;42.266;23.122;2023-06-22T11:39:34;95934.91;;;28.52;61.16
7754;BME280;3921;42.266;23.122;2023-06-22T11:42:09;95614.28;;;26.59;60.73
7754;BME280;3921;42.266;23.122;2023-06-22T11:44:36;95875.59;;;28.25;58.93
7754;BME280;3921;42.266;23.122;2023-06-22T11:47:03;95520.28;;;26.14;62.07
7754;BME280;3921;42.266;23.122;2023-06-22T11:49:32;95595.66;;;26.68;60.16
7754;BME280;3921;42.266;23.122;2023-06-22T11:51:58;95693.56;;;27.45;62.00
7754;BME280;3921;42.266;23.122;2023-06-22T11:54:25;95936.59;;;29.01;61.30
7754;BME280;3921;42.266;23.122;2023-06-22T11:56:52;95860.50;;;28.45;61.15
7754;BME280;3921;42.266;23.122;2023-06-22T11:59:19;95931.16;;;29.17;60.37
7754;BME280;3921;42.266;23.122;2023-06-22T12:01:47;95742.06;;;28.02;59.40
7754;BME280;3921;42.266;23.122;2023-06-22T12:04:16;95919.81;;;29.31;58.89
7754;BME280;3921;42.266;23.122;2023-06-22T12:06:45;95682.72;;;27.89;59.80
7754;BME280;3921;42.266;23.122;2023-06-22T12:09:12;95632.81;;;27.65;57.96
7754;BME280;3921;42.266;23.122;2023-06-22T12:11:39;95679.00;;;27.81;59.49
7754;BME280;3921;42.266;23.122;2023-06-22T12:14:07;95650.41;;;27.84;61.04
7754;BME280;3921;42.266;23.122;2023-06-22T12:16:34;95556.09;;;27.43;58.18
7754;BME280;3921;42.266;23.122;2023-06-22T12:19:01;95541.50;;;27.31;60.74
7754;BME280;3921;42.266;23.122;2023-06-22T12:21:28;95911.63;;;29.48;57.35
7754;BME280;3921;42.266;23.122;2023-06-22T12:23:56;95832.22;;;28.90;56.53
7754;BME280;3921;42.266;23.122;2023-06-22T12:26:23;95572.59;;;27.40;59.94
7754;BME280;3921;42.266;23.122;2023-06-22T12:28:50;95933.41;;;29.57;58.56
7754;BME280;3921;42.266;23.122;2023-06-22T12:31:17;95771.53;;;28.71;57.09
7754;BME280;3921;42.266;23.122;2023-06-22T12:33:44;95790.09;;;29.00;56.66
7754;BME280;3921;42.266;23.122;2023-06-22T12:36:11;95695.81;;;28.58;58.43
7754;BME280;3921;42.266;23.122;2023-06-22T12:38:37;95680.75;;;28.52;57.51
7754;BME280;3921;42.266;23.122;2023-06-22T12:41:06;95885.88;;;29.69;57.18
7754;BME280;3921;42.266;23.122;2023-06-22T12:43:33;95892.16;;;30.00;54.25
7754;BME280;3921;42.266;23.122;2023-06-22T12:45:59;95816.88;;;29.46;57.92
7754;BME280;3921;42.266;23.122;2023-06-22T12:48:27;95434.59;;;26.98;52.38
7754;BME280;3921;42.266;23.122;2023-06-22T12:50:54;95657.47;;;28.41;50.70
7754;BME280;3921;42.266;23.122;2023-06-22T12:53:21;95915.56;;;30.10;50.17
7754;BME280;3921;42.266;23.122;2023-06-22T12:55:49;95754.03;;;29.44;51.30
7754;BME280;3921;42.266;23.122;2023-06-22T12:58:17;95883.47;;;30.12;55.47
7754;BME280;3921;42.266;23.122;2023-06-22T13:00:45;95822.44;;;29.97;54.71
7754;BME280;3921;42.266;23.122;2023-06-22T13:03:11;95778.97;;;29.45;56.21
7754;BME280;3921;42.266;23.122;2023-06-22T13:05:38;95764.97;;;29.47;48.75
7754;BME280;3921;42.266;23.122;2023-06-22T13:08:05;95724.94;;;29.06;52.40
7754;BME280;3921;42.266;23.122;2023-06-22T13:10:33;95748.59;;;29.13;52.12
7754;BME280;3921;42.266;23.122;2023-06-22T13:13:00;95918.31;;;30.20;49.84